Time;durP1;ratioP1;P1;durP2;ratioP2;P2;SDS_P1;SDS_P2;PMS_P1;PMS_P2;Temp;Humidity;BMP_temperature;BMP_pressure;BME280_temperature;BME280_humidity;BME280_pressure;Samples;Min_cycle;Max_cycle;Signal;HPM_P1;HPM_P2
2021/10/15 00:02:06;;;;;;;;;;;;;;;9.38;71.15;98631.68;1714302;81;21021;-88
2021/10/15 00:04:32;;;;;;;;;;;;;;;9.36;71.22;98630.95;1682181;83;24457;-83
2021/10/15 00:06:58;;;;;;;;;;;;;;;9.33;71.26;98627.20;1685448;83;20338;-83
2021/10/15 00:09:25;;;;;;;;;;;;;;;9.28;71.32;98623.20;1684258;83;24950;-85
2021/10/15 00:11:51;;;;;;;;;;;;;;;9.25;71.37;98625.55;1685347;83;22341;-84
2021/10/15 00:14:17;;;;;;;;;;;;;;;9.18;71.39;98626.85;1682434;83;21158;-84
2021/10/15 00:16:43;;;;;;;;;;;;;;;9.17;71.47;98611.65;1682312;83;24482;-84
2021/10/15 00:19:09;;;;;;;;;;;;;;;9.14;71.52;98615.77;1683178;83;20785;-87
2021/10/15 00:21:35;;;;;;;;;;;;;;;9.16;71.57;98620.91;1689845;83;24985;-82
2021/10/15 00:24:07;;;;;;;;;;;;;;;9.16;71.64;98615.19;1686865;83;21951;-87
2021/10/15 00:26:36;;;;;;;;;;;;;;;9.15;71.69;98620.06;1687112;84;26817;-85
2021/10/15 00:29:05;;;;;;;;;;;;;;;9.11;71.75;98610.72;1690531;83;24457;-84
2021/10/15 00:31:32;;;;;;;;;;;;;;;9.10;71.82;98616.05;1688551;83;20209;-87
2021/10/15 00:33:58;;;;;;;;;;;;;;;9.09;71.89;98616.52;1681804;83;25031;-82
2021/10/15 00:36:25;;;;;;;;;;;;;;;9.09;71.97;98614.37;1675033;83;20300;-82
2021/10/15 00:38:51;;;;;;;;;;;;;;;9.11;72.01;98613.33;1680704;83;26010;-89
2021/10/15 00:41:18;;;;;;;;;;;;;;;9.07;72.07;98611.00;1680283;84;24504;-85
2021/10/15 00:44:04;;;;;;;;;;;;;;;9.06;72.11;98602.79;1650919;84;20151;-83
2021/10/15 00:46:30;;;;;;;;;;;;;;;9.10;72.19;98605.15;1646338;86;25076;-83
2021/10/15 00:48:56;;;;;;;;;;;;;;;9.11;72.24;98600.27;1661707;86;22124;-82
2021/10/15 00:51:24;;;;;;;;;;;;;;;9.10;72.31;98597.31;1656971;85;26737;-83
2021/10/15 00:53:50;;;;;;;;;;;;;;;9.12;72.33;98590.67;1656229;86;24642;-83
2021/10/15 00:56:16;;;;;;;;;;;;;;;9.17;72.37;98587.31;1654757;86;20529;-83
2021/10/15 00:58:42;;;;;;;;;;;;;;;9.21;72.45;98582.30;1655617;86;25021;-83
2021/10/15 01:01:08;;;;;;;;;;;;;;;9.22;72.51;98583.48;1654769;86;21968;-87
2021/10/15 01:03:35;;;;;;;;;;;;;;;9.26;72.59;98578.92;1655188;86;25989;-87
2021/10/15 01:06:05;;;;;;;;;;;;;;;9.29;72.63;98578.72;1657003;85;25260;-87
2021/10/15 01:08:33;;;;;;;;;;;;;;;9.30;72.68;98583.02;1654712;86;20507;-87
2021/10/15 01:10:59;;;;;;;;;;;;;;;9.30;72.73;98573.03;1648790;85;25828;-87
2021/10/15 01:13:27;;;;;;;;;;;;;;;9.32;72.79;98572.48;1649876;86;22085;-87
2021/10/15 01:15:55;;;;;;;;;;;;;;;9.38;72.82;98568.19;1653406;86;26035;-87
2021/10/15 01:18:21;;;;;;;;;;;;;;;9.36;72.86;98574.80;1654887;85;24690;-87
2021/10/15 01:20:48;;;;;;;;;;;;;;;9.40;72.90;98572.83;1649833;86;20301;-87
2021/10/15 01:23:14;;;;;;;;;;;;;;;9.40;72.96;98572.36;1658049;84;24945;-87
2021/10/15 01:25:40;;;;;;;;;;;;;;;9.42;73.03;98574.42;1657628;86;20318;-87
2021/10/15 01:28:13;;;;;;;;;;;;;;;9.41;73.05;98571.90;1650405;85;21103;-87
2021/10/15 01:30:44;;;;;;;;;;;;;;;9.38;73.09;98570.30;1653382;86;24579;-87
2021/10/15 01:33:08;;;;;;;;;;;;;;;9.38;73.12;98577.33;1658428;85;20260;-87
2021/10/15 01:35:34;;;;;;;;;;;;;;;9.37;73.16;98571.73;1652808;86;20217;-87
2021/10/15 01:38:03;;;;;;;;;;;;;;;9.37;73.17;98569.95;1648008;86;22646;-87
2021/10/15 01:40:29;;;;;;;;;;;;;;;9.40;73.24;98566.30;1654172;86;25951;-87
2021/10/15 01:42:55;;;;;;;;;;;;;;;9.38;73.26;98557.24;1654096;82;24466;-87
2021/10/15 01:45:23;;;;;;;;;;;;;;;9.40;73.30;98551.47;1667250;85;20358;-87
2021/10/15 01:47:49;;;;;;;;;;;;;;;9.35;73.33;98550.92;1669065;84;25058;-87
2021/10/15 01:50:15;;;;;;;;;;;;;;;9.34;73.34;98551.01;1670800;84;22059;-87
2021/10/15 01:52:41;;;;;;;;;;;;;;;9.30;73.38;98541.23;1664800;84;26062;-87
2021/10/15 01:55:08;;;;;;;;;;;;;;;9.30;73.42;98545.61;1666576;84;24520;-87
2021/10/15 01:57:35;;;;;;;;;;;;;;;9.28;73.45;98543.09;1671693;84;20503;-86
2021/10/15 02:00:02;;;;;;;;;;;;;;;9.30;73.47;98541.70;1669829;84;25777;-87
2021/10/15 02:02:28;;;;;;;;;;;;;;;9.25;73.49;98539.38;1666933;84;21973;-86
2021/10/15 02:04:54;;;;;;;;;;;;;;;9.21;73.54;98535.30;1672206;84;21103;-87
2021/10/15 02:07:21;;;;;;;;;;;;;;;9.22;73.57;98527.80;1662011;84;25531;-87
2021/10/15 02:09:47;;;;;;;;;;;;;;;9.20;73.62;98534.45;1669756;84;20263;-87
2021/10/15 02:12:13;;;;;;;;;;;;;;;9.22;73.67;98534.33;1667948;84;24978;-86
2021/10/15 02:14:42;;;;;;;;;;;;;;;9.23;73.72;98526.88;1668031;84;22011;-86
2021/10/15 02:17:08;;;;;;;;;;;;;;;9.22;73.77;98526.03;1666730;85;26221;-86
2021/10/15 02:19:38;;;;;;;;;;;;;;;9.24;73.81;98524.64;1662955;84;24541;-86
2021/10/15 02:22:04;;;;;;;;;;;;;;;9.22;73.88;98518.66;1662304;84;20472;-86
2021/10/15 02:24:33;;;;;;;;;;;;;;;9.19;73.89;98517.56;1665258;84;25051;-86
2021/10/15 02:26:59;;;;;;;;;;;;;;;9.15;73.93;98521.31;1663824;84;22057;-86
2021/10/15 02:29:25;;;;;;;;;;;;;;;9.16;73.96;98519.08;1672117;84;26011;-87
2021/10/15 02:31:56;;;;;;;;;;;;;;;9.16;74.02;98517.77;1668569;84;25251;-86
2021/10/15 02:34:23;;;;;;;;;;;;;;;9.16;74.05;98520.38;1643369;85;20208;-87
2021/10/15 02:36:48;;;;;;;;;;;;;;;9.17;74.10;98517.66;1666301;84;25050;-87
2021/10/15 02:39:15;;;;;;;;;;;;;;;9.18;74.13;98522.41;1670274;85;22046;-87
2021/10/15 02:41:41;;;;;;;;;;;;;;;9.16;74.17;98525.60;1663727;84;26050;-87
2021/10/15 02:44:09;;;;;;;;;;;;;;;9.13;74.18;98521.40;1681057;82;24427;-87
2021/10/15 02:46:35;;;;;;;;;;;;;;;9.15;74.22;98523.92;1699042;83;20496;-87
2021/10/15 02:49:04;;;;;;;;;;;;;;;9.14;74.26;98521.78;1704677;83;25591;-87
2021/10/15 02:51:30;;;;;;;;;;;;;;;9.17;74.29;98525.48;1697157;83;22059;-87
2021/10/15 02:53:57;;;;;;;;;;;;;;;9.20;74.33;98529.23;1691833;83;26026;-87
2021/10/15 02:56:23;;;;;;;;;;;;;;;9.22;74.39;98528.64;1692301;83;24574;-86
2021/10/15 02:58:49;;;;;;;;;;;;;;;9.21;74.45;98525.69;1694540;83;20567;-86
2021/10/15 03:01:15;;;;;;;;;;;;;;;9.20;74.49;98527.08;1689082;83;25039;-86
2021/10/15 03:03:41;;;;;;;;;;;;;;;9.19;74.51;98524.09;1696094;83;21974;-86
2021/10/15 03:06:08;;;;;;;;;;;;;;;9.21;74.55;98523.08;1694905;83;26021;-87
2021/10/15 03:08:34;;;;;;;;;;;;;;;9.19;74.60;98513.19;1697651;83;25272;-86
2021/10/15 03:11:00;;;;;;;;;;;;;;;9.18;74.61;98512.81;1691071;83;20491;-86
2021/10/15 03:13:27;;;;;;;;;;;;;;;9.18;74.64;98513.27;1699453;84;25099;-86
2021/10/15 03:15:55;;;;;;;;;;;;;;;9.16;74.66;98511.25;1693887;83;21994;-86
2021/10/15 03:18:22;;;;;;;;;;;;;;;9.14;74.68;98511.80;1697779;83;25992;-86
2021/10/15 03:20:48;;;;;;;;;;;;;;;9.16;74.73;98508.63;1693828;84;24500;-86
2021/10/15 03:23:14;;;;;;;;;;;;;;;9.21;74.79;98505.27;1696864;83;20246;-86
2021/10/15 03:25:40;;;;;;;;;;;;;;;9.17;74.84;98496.77;1692325;83;24964;-86
2021/10/15 03:28:06;;;;;;;;;;;;;;;9.14;74.87;98497.44;1697169;83;21958;-87
2021/10/15 03:30:33;;;;;;;;;;;;;;;9.13;74.94;98504.43;1693116;83;27060;-86
2021/10/15 03:33:01;;;;;;;;;;;;;;;9.11;74.99;98503.67;1692438;83;25248;-85
2021/10/15 03:35:27;;;;;;;;;;;;;;;9.07;75.04;98500.05;1676756;83;20346;-86
2021/10/15 03:37:53;;;;;;;;;;;;;;;9.03;75.10;98497.27;1694553;83;24963;-86
2021/10/15 03:40:19;;;;;;;;;;;;;;;9.05;75.18;98492.80;1697018;83;20385;-86
2021/10/15 03:42:45;;;;;;;;;;;;;;;9.04;75.26;98488.52;1690168;83;26014;-85
2021/10/15 03:45:11;;;;;;;;;;;;;;;9.00;75.31;98488.34;1692597;83;24444;-86
2021/10/15 03:47:38;;;;;;;;;;;;;;;9.04;75.38;98491.13;1689273;83;20241;-86
2021/10/15 03:50:10;;;;;;;;;;;;;;;9.05;75.44;98494.95;1686132;83;25224;-86
2021/10/15 03:52:36;;;;;;;;;;;;;;;9.06;75.50;98493.15;1693025;83;21972;-86
2021/10/15 03:55:04;;;;;;;;;;;;;;;9.03;75.57;98502.48;1695858;84;26029;-86
2021/10/15 03:57:30;;;;;;;;;;;;;;;9.01;75.60;98499.13;1692887;83;25336;-86
2021/10/15 03:59:56;;;;;;;;;;;;;;;8.93;75.62;98500.93;1697301;83;20192;-86
2021/10/15 04:02:22;;;;;;;;;;;;;;;8.89;75.66;98499.42;1692523;83;25024;-86
2021/10/15 04:04:48;;;;;;;;;;;;;;;8.87;75.70;98493.48;1688741;84;22011;-86
2021/10/15 04:07:14;;;;;;;;;;;;;;;8.90;75.75;98492.43;1693860;83;25955;-86
2021/10/15 04:09:41;;;;;;;;;;;;;;;8.91;75.80;98494.95;1694991;83;24588;-86
2021/10/15 04:12:07;;;;;;;;;;;;;;;8.94;75.86;98497.86;1692699;83;20450;-87
2021/10/15 04:14:33;;;;;;;;;;;;;;;8.91;75.91;98491.04;1701178;83;24950;-86
2021/10/15 04:17:02;;;;;;;;;;;;;;;8.90;75.96;98483.30;1694248;84;22062;-86
2021/10/15 04:19:28;;;;;;;;;;;;;;;8.87;76.00;98490.87;1691357;83;26359;-86
2021/10/15 04:21:54;;;;;;;;;;;;;;;8.90;76.00;98492.43;1699006;84;24426;-86
2021/10/15 04:24:20;;;;;;;;;;;;;;;8.83;76.04;98489.85;1730429;81;20199;-86
2021/10/15 04:26:49;;;;;;;;;;;;;;;8.83;76.10;98491.16;1690723;83;25702;-86
2021/10/15 04:29:15;;;;;;;;;;;;;;;8.83;76.12;98488.08;1692559;83;22087;-86
2021/10/15 04:31:41;;;;;;;;;;;;;;;8.83;76.15;98490.69;1697606;83;25850;-86
2021/10/15 04:34:07;;;;;;;;;;;;;;;8.81;76.21;98482.11;1689121;83;24506;-86
2021/10/15 04:36:38;;;;;;;;;;;;;;;8.81;76.25;98483.41;1725314;82;20178;-86
2021/10/15 04:39:04;;;;;;;;;;;;;;;8.83;76.30;98479.41;1693838;83;25152;-86
2021/10/15 04:41:30;;;;;;;;;;;;;;;8.87;76.36;98478.28;1691146;83;22120;-86
2021/10/15 04:44:03;;;;;;;;;;;;;;;8.84;76.37;98477.18;1695355;83;26680;-86
2021/10/15 04:46:29;;;;;;;;;;;;;;;8.80;76.41;98472.59;1677829;83;24543;-86
2021/10/15 04:48:57;;;;;;;;;;;;;;;8.77;76.41;98471.50;1677809;83;20198;-86
2021/10/15 04:51:23;;;;;;;;;;;;;;;8.74;76.43;98468.59;1680184;83;25084;-86
2021/10/15 04:53:49;;;;;;;;;;;;;;;8.73;76.45;98467.38;1685559;84;22090;-86
2021/10/15 04:56:15;;;;;;;;;;;;;;;8.75;76.50;98472.89;1662921;84;26038;-86
2021/10/15 04:58:42;;;;;;;;;;;;;;;8.74;76.53;98469.91;1663865;85;24625;-86
2021/10/15 05:01:08;;;;;;;;;;;;;;;8.75;76.57;98462.45;1684903;83;20224;-87
2021/10/15 05:03:34;;;;;;;;;;;;;;;8.79;76.61;98460.02;1678543;83;24976;-86
2021/10/15 05:06:00;;;;;;;;;;;;;;;8.80;76.67;98455.64;1681150;83;22074;-87
2021/10/15 05:08:39;;;;;;;;;;;;;;;8.83;76.73;98453.31;1686376;83;25964;-86
2021/10/15 05:11:00;;;;;;;;;;;;;;;8.84;76.76;98453.20;1682916;81;24553;-86
2021/10/15 05:13:26;;;;;;;;;;;;;;;8.80;76.79;98456.94;1683884;83;20248;-86
2021/10/15 05:15:52;;;;;;;;;;;;;;;8.81;76.80;98458.62;1687691;83;24895;-87
2021/10/15 05:18:18;;;;;;;;;;;;;;;8.80;76.82;98457.78;1684828;83;21897;-86
2021/10/15 05:20:44;;;;;;;;;;;;;;;8.81;76.84;98463.84;1685057;83;25956;-87
2021/10/15 05:23:11;;;;;;;;;;;;;;;8.84;76.84;98463.64;1685564;83;24392;-87
2021/10/15 05:25:37;;;;;;;;;;;;;;;8.89;76.86;98458.97;1685218;83;20494;-87
2021/10/15 05:28:04;;;;;;;;;;;;;;;8.90;76.88;98458.50;1684558;83;25003;-87
2021/10/15 05:30:33;;;;;;;;;;;;;;;8.90;76.89;98461.11;1692220;83;21352;-86
2021/10/15 05:33:00;;;;;;;;;;;;;;;8.91;76.93;98451.05;1690774;83;26631;-87
2021/10/15 05:35:26;;;;;;;;;;;;;;;8.91;76.95;98457.11;1686954;83;24693;-87
2021/10/15 05:37:52;;;;;;;;;;;;;;;8.93;76.96;98455.72;1692079;83;20237;-86
2021/10/15 05:40:18;;;;;;;;;;;;;;;8.96;77.01;98451.59;1690743;83;24972;-87
2021/10/15 05:42:45;;;;;;;;;;;;;;;8.99;77.02;98450.12;1670906;84;21802;-86
2021/10/15 05:45:11;;;;;;;;;;;;;;;9.01;77.05;98454.29;1652163;84;26024;-86
2021/10/15 05:47:38;;;;;;;;;;;;;;;9.03;77.08;98450.28;1659847;84;24512;-86
2021/10/15 05:50:04;;;;;;;;;;;;;;;9.04;77.12;98451.97;1653295;85;20210;-86
2021/10/15 05:52:42;;;;;;;;;;;;;;;9.04;77.13;98449.36;1668544;84;24963;-86
2021/10/15 05:55:22;;;;;;;;;;;;;;;9.08;77.17;98446.45;1658758;84;22034;-86
2021/10/15 06:00:12;;;;;;;;;;;;;;;9.17;77.30;98441.09;1651128;85;25535;-86
2021/10/15 06:02:45;;;;;;;;;;;;;;;9.20;77.33;98445.67;1672748;84;20314;-87
2021/10/15 06:16:07;;;;;;;;;;;;;;;9.43;77.53;98439.44;1669912;84;20240;-86
2021/10/15 06:18:39;;;;;;;;;;;;;;;9.47;77.58;98440.91;1662709;84;24977;-87
2021/10/15 06:21:06;;;;;;;;;;;;;;;9.50;77.63;98442.84;1667418;84;22084;-86
2021/10/15 06:23:34;;;;;;;;;;;;;;;9.53;77.64;98447.88;1665305;84;26858;-86
2021/10/15 06:26:01;;;;;;;;;;;;;;;9.57;77.68;98440.20;1675386;85;24464;-86
2021/10/15 06:28:27;;;;;;;;;;;;;;;9.65;77.71;98451.47;1670405;84;20499;-86
2021/10/15 06:30:53;;;;;;;;;;;;;;;9.68;77.74;98446.02;1673868;85;25141;-86
2021/10/15 06:33:20;;;;;;;;;;;;;;;9.73;77.78;98440.48;1668531;84;21995;-86
2021/10/15 06:35:46;;;;;;;;;;;;;;;9.77;77.79;98442.80;1674217;84;26065;-86
2021/10/15 06:38:12;;;;;;;;;;;;;;;9.80;77.83;98440.46;1667058;84;24429;-86
2021/10/15 06:40:38;;;;;;;;;;;;;;;9.80;77.85;98439.16;1667834;84;20507;-86
2021/10/15 06:43:07;;;;;;;;;;;;;;;9.81;77.86;98432.99;1669592;84;25049;-86
2021/10/15 06:45:33;;;;;;;;;;;;;;;9.83;77.90;98431.09;1676744;83;22028;-87
2021/10/15 06:48:01;;;;;;;;;;;;;;;9.89;77.91;98431.99;1695915;83;26184;-86
2021/10/15 06:50:27;;;;;;;;;;;;;;;9.95;77.94;98431.59;1699861;83;24542;-87
2021/10/15 06:52:54;;;;;;;;;;;;;;;9.97;77.98;98434.48;1689179;84;20253;-87
2021/10/15 06:55:21;;;;;;;;;;;;;;;10.04;78.00;98438.33;1697210;84;25001;-86
2021/10/15 06:57:48;;;;;;;;;;;;;;;10.11;78.01;98436.14;1690513;83;22162;-86
2021/10/15 07:00:15;;;;;;;;;;;;;;;10.18;78.05;98428.29;1699743;83;26089;-85
2021/10/15 07:02:42;;;;;;;;;;;;;;;10.24;78.07;98435.72;1690025;83;24463;-85
2021/10/15 07:05:10;;;;;;;;;;;;;;;10.28;78.08;98426.72;1693032;83;20579;-85
2021/10/15 07:07:36;;;;;;;;;;;;;;;10.28;78.05;98435.03;1692442;83;25121;-86
2021/10/15 07:10:03;;;;;;;;;;;;;;;10.34;78.05;98434.61;1692231;83;22129;-87
2021/10/15 07:12:32;;;;;;;;;;;;;;;10.43;78.06;98432.66;1696088;83;26070;-87
2021/10/15 07:14:58;;;;;;;;;;;;;;;10.45;78.05;98417.70;1701071;83;24524;-87
2021/10/15 07:17:24;;;;;;;;;;;;;;;10.61;78.09;98437.94;1691075;83;20214;-87
2021/10/15 07:19:50;;;;;;;;;;;;;;;10.70;78.12;98423.35;1690784;83;24909;-86
2021/10/15 07:22:16;;;;;;;;;;;;;;;10.70;78.09;98427.28;1690830;84;21876;-87
2021/10/15 07:24:42;;;;;;;;;;;;;;;10.71;78.07;98431.58;1699478;83;25983;-87
2021/10/15 07:27:08;;;;;;;;;;;;;;;10.78;78.02;98425.81;1686918;83;24511;-87
2021/10/15 07:29:34;;;;;;;;;;;;;;;10.88;78.03;98429.44;1695340;83;20314;-86
2021/10/15 07:32:03;;;;;;;;;;;;;;;10.92;77.98;98424.81;1695476;83;25578;-86
2021/10/15 07:34:29;;;;;;;;;;;;;;;10.98;77.96;98421.77;1689685;83;22005;-87
2021/10/15 07:36:55;;;;;;;;;;;;;;;11.03;77.94;98425.35;1695322;83;21061;-86
2021/10/15 07:39:21;;;;;;;;;;;;;;;11.09;77.91;98413.13;1669022;84;24515;-86
2021/10/15 07:41:48;;;;;;;;;;;;;;;11.11;77.88;98417.33;1682046;84;20209;-87
2021/10/15 07:44:20;;;;;;;;;;;;;;;11.15;77.85;98416.15;1698641;83;24601;-87
2021/10/15 07:46:46;;;;;;;;;;;;;;;11.21;77.82;98423.56;1696672;83;22023;-86
2021/10/15 07:49:12;;;;;;;;;;;;;;;11.28;77.80;98422.66;1702958;83;26004;-87
2021/10/15 07:51:38;;;;;;;;;;;;;;;11.38;77.81;98417.57;1705243;83;24502;-87
2021/10/15 07:54:05;;;;;;;;;;;;;;;11.46;77.77;98418.66;1704953;83;20238;-86
2021/10/15 07:56:33;;;;;;;;;;;;;;;11.50;77.70;98416.20;1700593;83;25723;-87
2021/10/15 07:59:00;;;;;;;;;;;;;;;11.55;77.65;98419.79;1702208;83;21543;-87
2021/10/15 08:01:30;;;;;;;;;;;;;;;11.61;77.56;98420.66;1706178;83;26060;-86
2021/10/15 08:03:59;;;;;;;;;;;;;;;11.68;77.53;98421.38;1707637;83;39373;-86
2021/10/15 08:06:24;;;;;;;;;;;;;;;11.73;77.47;98423.67;1683248;83;20540;-86
2021/10/15 08:08:51;;;;;;;;;;;;;;;11.76;77.39;98422.16;1705284;83;24981;-86
2021/10/15 08:11:20;;;;;;;;;;;;;;;11.78;77.30;98420.73;1700892;83;22146;-86
2021/10/15 08:13:46;;;;;;;;;;;;;;;11.83;77.23;98417.30;1701481;83;25949;-86
2021/10/15 08:16:12;;;;;;;;;;;;;;;11.87;77.13;98418.73;1704349;83;25258;-86
2021/10/15 08:18:38;;;;;;;;;;;;;;;11.90;77.08;98414.08;1708329;83;20759;-87
2021/10/15 08:21:14;;;;;;;;;;;;;;;11.93;77.01;98416.95;1706691;83;25034;-86
2021/10/15 08:23:40;;;;;;;;;;;;;;;11.97;76.95;98411.36;1687318;84;22012;-87
2021/10/15 08:26:06;;;;;;;;;;;;;;;11.99;76.87;98414.72;1685681;84;26030;-86
2021/10/15 08:28:34;;;;;;;;;;;;;;;12.02;76.81;98418.88;1668127;84;24492;-87
2021/10/15 08:31:00;;;;;;;;;;;;;;;12.04;76.73;98416.51;1689705;84;20307;-87
2021/10/15 08:33:27;;;;;;;;;;;;;;;12.04;76.68;98416.98;1682108;84;24969;-87
2021/10/15 08:35:53;;;;;;;;;;;;;;;12.03;76.58;98415.30;1684195;83;22098;-86
2021/10/15 08:38:19;;;;;;;;;;;;;;;12.01;76.48;98418.03;1701075;83;21199;-87
2021/10/15 08:40:45;;;;;;;;;;;;;;;12.05;76.41;98409.00;1696231;83;24429;-87
2021/10/15 08:43:11;;;;;;;;;;;;;;;12.09;76.33;98414.84;1703747;83;20243;-87
2021/10/15 08:45:37;;;;;;;;;;;;;;;12.11;76.29;98411.12;1704900;83;25031;-87
2021/10/15 08:48:05;;;;;;;;;;;;;;;12.18;76.28;98402.80;1698294;83;22934;-87
2021/10/15 08:50:32;;;;;;;;;;;;;;;12.26;76.28;98403.89;1702166;83;26793;-87
2021/10/15 08:53:02;;;;;;;;;;;;;;;12.35;76.26;98407.58;1698853;84;24438;-87
2021/10/15 08:55:28;;;;;;;;;;;;;;;12.38;76.22;98398.98;1698915;84;20485;-87
2021/10/15 08:57:55;;;;;;;;;;;;;;;12.39;76.16;98396.73;1692680;83;24933;-87
2021/10/15 09:00:25;;;;;;;;;;;;;;;12.41;76.10;98394.83;1699237;83;21952;-87
2021/10/15 09:03:11;;;;;;;;;;;;;;;12.42;76.04;98394.36;1696934;83;26059;-86
2021/10/15 09:05:37;;;;;;;;;;;;;;;12.47;76.03;98388.27;1698500;83;24442;-87
2021/10/15 09:08:04;;;;;;;;;;;;;;;12.52;75.97;98390.05;1695780;83;20226;-87
2021/10/15 09:10:33;;;;;;;;;;;;;;;12.56;75.89;98390.16;1696516;83;24954;-87
2021/10/15 09:13:01;;;;;;;;;;;;;;;12.58;75.80;98393.03;1692575;83;21958;-87
2021/10/15 09:15:32;;;;;;;;;;;;;;;12.61;75.75;98388.00;1701121;82;26898;-87
2021/10/15 09:18:00;;;;;;;;;;;;;;;12.63;75.68;98387.42;1696865;83;24547;-87
2021/10/15 09:20:29;;;;;;;;;;;;;;;12.66;75.65;98380.59;1687878;84;20180;-87
2021/10/15 09:22:55;;;;;;;;;;;;;;;12.70;75.61;98380.73;1691964;83;25181;-87
2021/10/15 09:25:21;;;;;;;;;;;;;;;12.75;75.60;98379.89;1696433;83;22057;-87
2021/10/15 09:27:54;;;;;;;;;;;;;;;12.79;75.58;98379.16;1697672;84;26682;-87
2021/10/15 09:30:21;;;;;;;;;;;;;;;12.86;75.54;98373.30;1696788;83;24509;-87
2021/10/15 09:32:52;;;;;;;;;;;;;;;12.87;75.47;98372.32;1701884;83;20469;-87
2021/10/15 09:35:20;;;;;;;;;;;;;;;12.93;75.40;98369.20;1694115;82;25016;-87
2021/10/15 09:37:47;;;;;;;;;;;;;;;12.93;75.28;98361.33;1692205;83;22214;-87
2021/10/15 09:40:15;;;;;;;;;;;;;;;12.93;75.14;98365.27;1695713;83;27224;-87
2021/10/15 09:42:43;;;;;;;;;;;;;;;12.92;75.01;98371.98;1668685;84;24693;-87
2021/10/15 09:45:16;;;;;;;;;;;;;;;12.96;74.94;98374.23;1686621;83;20252;-87
2021/10/15 09:47:47;;;;;;;;;;;;;;;13.03;74.85;98374.58;1728636;81;24894;-87
2021/10/15 09:50:19;;;;;;;;;;;;;;;13.05;74.76;98372.64;1697504;83;22002;-87
2021/10/15 09:52:44;;;;;;;;;;;;;;;13.05;74.66;98367.86;1689808;83;25965;-87
2021/10/15 09:55:19;;;;;;;;;;;;;;;13.06;74.52;98368.22;1692023;84;24515;-87
2021/10/15 09:57:46;;;;;;;;;;;;;;;13.00;74.36;98366.45;1693585;83;20226;-87
2021/10/15 10:00:34;;;;;;;;;;;;;;;12.99;74.22;98362.14;1692932;83;24977;-87
2021/10/15 10:02:57;;;;;;;;;;;;;;;12.98;74.09;98362.30;1686847;83;22092;-87
2021/10/15 10:05:23;;;;;;;;;;;;;;;12.99;73.99;98363.94;1695356;84;26303;-87
2021/10/15 10:07:51;;;;;;;;;;;;;;;13.00;73.91;98358.57;1695619;83;24739;-87
2021/10/15 10:10:18;;;;;;;;;;;;;;;13.01;73.85;98367.28;1696659;83;20147;-87
2021/10/15 10:12:45;;;;;;;;;;;;;;;13.02;73.78;98354.98;1693721;83;24954;-87
2021/10/15 10:15:13;;;;;;;;;;;;;;;13.00;73.72;98358.57;1692242;84;21898;-87
2021/10/15 10:17:41;;;;;;;;;;;;;;;13.00;73.65;98363.83;1732117;82;25992;-87
2021/10/15 10:20:10;;;;;;;;;;;;;;;13.02;73.57;98352.36;1693208;82;24381;-87
2021/10/15 10:22:37;;;;;;;;;;;;;;;13.04;73.54;98346.52;1692405;84;20206;-87
2021/10/15 10:25:03;;;;;;;;;;;;;;;13.04;73.49;98353.08;1692671;84;24437;-88
2021/10/15 10:27:31;;;;;;;;;;;;;;;13.04;73.41;98350.45;1695015;84;22003;-87
2021/10/15 10:29:58;;;;;;;;;;;;;;;13.05;73.35;98348.16;1692235;83;26057;-87
2021/10/15 10:32:25;;;;;;;;;;;;;;;13.03;73.29;98346.99;1696921;83;24544;-87
2021/10/15 10:34:54;;;;;;;;;;;;;;;13.07;73.30;98351.51;1729319;82;20251;-87
2021/10/15 10:37:21;;;;;;;;;;;;;;;13.05;73.25;98349.00;1696551;83;25034;-88
2021/10/15 10:39:48;;;;;;;;;;;;;;;13.05;73.19;98346.37;1697386;83;22200;-88
2021/10/15 10:42:15;;;;;;;;;;;;;;;13.01;73.12;98351.52;1691028;83;26129;-87
2021/10/15 10:44:49;;;;;;;;;;;;;;;12.94;72.99;98343.77;1692603;84;24447;-87
2021/10/15 10:47:16;;;;;;;;;;;;;;;12.87;72.87;98347.37;1689539;83;20256;-87
2021/10/15 10:49:44;;;;;;;;;;;;;;;12.85;72.78;98349.30;1675697;84;25708;-87
2021/10/15 10:52:15;;;;;;;;;;;;;;;12.84;72.73;98345.00;1674385;84;22243;-87
2021/10/15 10:54:42;;;;;;;;;;;;;;;12.84;72.67;98338.91;1675479;84;25973;-86
2021/10/15 10:57:16;;;;;;;;;;;;;;;12.83;72.63;98339.86;1676075;84;24520;-86
2021/10/15 10:59:43;;;;;;;;;;;;;;;12.85;72.61;98337.48;1674645;84;20177;-87
2021/10/15 11:02:18;;;;;;;;;;;;;;;12.90;72.60;98337.11;1676343;84;25024;-87
2021/10/15 11:04:46;;;;;;;;;;;;;;;12.95;72.61;98334.47;1679146;84;22010;-87
2021/10/15 11:07:25;;;;;;;;;;;;;;;13.02;72.62;98335.29;1684128;84;26201;-87
2021/10/15 11:09:52;;;;;;;;;;;;;;;13.05;72.62;98326.66;1679538;84;24558;-87
2021/10/15 11:12:25;;;;;;;;;;;;;;;13.06;72.58;98330.97;1682771;84;20224;-86
2021/10/15 11:14:59;;;;;;;;;;;;;;;13.06;72.53;98328.34;1676388;84;25061;-87
2021/10/15 11:17:28;;;;;;;;;;;;;;;13.09;72.50;98330.70;1685303;83;22012;-87
2021/10/15 11:20:08;;;;;;;;;;;;;;;13.08;72.45;98325.59;1679479;84;26230;-87
2021/10/15 11:22:35;;;;;;;;;;;;;;;13.12;72.42;98323.09;1680099;84;24306;-87
2021/10/15 11:25:01;;;;;;;;;;;;;;;13.11;72.38;98322.70;1679329;84;20615;-87
2021/10/15 11:27:27;;;;;;;;;;;;;;;13.04;72.27;98318.42;1681132;83;25023;-87
2021/10/15 11:29:57;;;;;;;;;;;;;;;13.03;72.18;98317.26;1677024;84;21940;-87
2021/10/15 11:32:35;;;;;;;;;;;;;;;13.00;72.12;98308.66;1675669;84;26002;-87
2021/10/15 11:35:08;;;;;;;;;;;;;;;13.01;72.06;98312.12;1680210;84;24466;-87
2021/10/15 11:37:44;;;;;;;;;;;;;;;13.03;72.02;98312.00;1676178;84;20277;-88
2021/10/15 11:40:12;;;;;;;;;;;;;;;13.02;71.98;98312.95;1680455;84;25033;-87
2021/10/15 11:42:38;;;;;;;;;;;;;;;13.02;71.96;98308.54;1669428;84;21989;-87
2021/10/15 11:45:06;;;;;;;;;;;;;;;12.99;71.89;98304.35;1680023;84;25934;-88
2021/10/15 11:47:32;;;;;;;;;;;;;;;13.02;71.86;98305.08;1684505;82;24594;-87
2021/10/15 11:49:58;;;;;;;;;;;;;;;13.06;71.85;98309.95;1701871;83;20269;-87
2021/10/15 11:52:24;;;;;;;;;;;;;;;13.08;71.87;98305.89;1699975;83;24995;-87
2021/10/15 11:54:52;;;;;;;;;;;;;;;13.05;71.80;98304.81;1704850;83;20308;-87
2021/10/15 11:57:19;;;;;;;;;;;;;;;13.02;71.74;98295.41;1707601;83;26242;-87
2021/10/15 11:59:45;;;;;;;;;;;;;;;13.02;71.68;98301.14;1705833;83;24408;-87
2021/10/15 12:02:11;;;;;;;;;;;;;;;13.02;71.68;98282.74;1701045;83;20862;-87
2021/10/15 12:04:37;;;;;;;;;;;;;;;13.07;71.68;98284.52;1702648;83;24934;-87
2021/10/15 12:07:10;;;;;;;;;;;;;;;13.17;71.73;98283.66;1706355;83;21962;-87
2021/10/15 12:09:36;;;;;;;;;;;;;;;13.27;71.81;98279.78;1702382;83;25948;-87
2021/10/15 12:12:06;;;;;;;;;;;;;;;13.35;71.85;98278.20;1704055;83;24590;-88
2021/10/15 12:14:33;;;;;;;;;;;;;;;13.43;71.86;98284.59;1699674;83;20290;-87
2021/10/15 12:17:00;;;;;;;;;;;;;;;13.46;71.83;98282.55;1699701;83;24984;-88
2021/10/15 12:19:28;;;;;;;;;;;;;;;13.44;71.77;98272.64;1702152;83;22216;-87
2021/10/15 12:21:56;;;;;;;;;;;;;;;13.39;71.68;98270.40;1707486;83;26058;-88
2021/10/15 12:24:33;;;;;;;;;;;;;;;13.34;71.54;98276.52;1699712;83;24477;-88
2021/10/15 12:27:04;;;;;;;;;;;;;;;13.31;71.41;98273.33;1701882;83;20196;-88
2021/10/15 12:29:31;;;;;;;;;;;;;;;13.31;71.34;98268.08;1700453;83;24993;-87
2021/10/15 12:32:15;;;;;;;;;;;;;;;13.27;71.28;98260.91;1701129;83;20352;-87
2021/10/15 12:35:01;;;;;;;;;;;;;;;13.25;71.22;98265.48;1703645;83;21195;-87
2021/10/15 12:37:46;;;;;;;;;;;;;;;13.26;71.17;98259.71;1692017;83;23731;-88
2021/10/15 12:40:17;;;;;;;;;;;;;;;13.27;71.12;98262.22;1703108;83;20224;-87
2021/10/15 12:43:01;;;;;;;;;;;;;;;13.33;71.10;98252.98;1704342;83;25020;-87
2021/10/15 12:45:28;;;;;;;;;;;;;;;13.33;71.05;98247.73;1702489;83;21983;-87
2021/10/15 12:47:56;;;;;;;;;;;;;;;13.31;70.96;98248.36;1698071;82;26030;-87
2021/10/15 12:53:00;;;;;;;;;;;;;;;13.27;70.82;98246.92;1681236;83;20208;-87
2021/10/15 12:55:28;;;;;;;;;;;;;;;13.29;70.75;98245.85;1671787;84;25097;-87
2021/10/15 12:57:56;;;;;;;;;;;;;;;13.27;70.70;98242.51;1677561;84;22721;-87
2021/10/15 13:00:24;;;;;;;;;;;;;;;13.29;70.65;98242.39;1675579;84;26648;-87
2021/10/15 13:03:04;;;;;;;;;;;;;;;13.30;70.61;98237.48;1670872;83;24448;-87
2021/10/15 13:05:31;;;;;;;;;;;;;;;13.28;70.56;98236.77;1678785;83;20455;-87
2021/10/15 13:08:00;;;;;;;;;;;;;;;13.26;70.53;98235.58;1684760;84;24968;-87
2021/10/15 13:10:32;;;;;;;;;;;;;;;13.25;70.47;98233.94;1670342;84;22019;-87
2021/10/15 13:12:58;;;;;;;;;;;;;;;13.19;70.39;98230.51;1682918;84;26047;-87